Time;durP1;ratioP1;P1;durP2;ratioP2;P2;SDS_P1;SDS_P2;PMS_P1;PMS_P2;Temp;Humidity;BMP_temperature;BMP_pressure;BME280_temperature;BME280_humidity;BME280_pressure;Samples;Min_cycle;Max_cycle;Signal;HPM_P1;HPM_P2
2021/10/31 00:01:18;;;;;;;15.28;11.75;;;;;;;7.95;67.92;94993.12;826550;71;33504;-77
2021/10/31 00:16:09;;;;;;;15.43;11.83;;;;;;;7.99;68.40;94991.56;827726;71;30179;-78
2021/10/31 00:31:16;;;;;;;16.07;10.60;;;;;;;8.01;68.05;94992.09;827080;71;32816;-79
2021/10/31 00:46:10;;;;;;;16.75;11.90;;;;;;;8.05;67.84;94979.80;833507;71;29751;-76
2021/10/31 01:01:20;;;;;;;14.13;11.22;;;;;;;7.99;67.84;94980.33;833760;71;32836;-79
2021/10/31 01:16:36;;;;;;;13.25;10.82;;;;;;;7.90;67.97;94963.05;833576;71;33291;-77
2021/10/31 01:31:24;;;;;;;14.43;10.78;;;;;;;7.79;68.09;94963.56;827488;71;29843;-80
2021/10/31 01:46:20;;;;;;;13.30;10.55;;;;;;;7.74;68.52;94950.47;826815;71;32843;-77
2021/10/31 02:16:11;;;;;;;15.80;11.10;;;;;;;7.87;68.65;94937.45;827765;71;29402;-78
2021/10/31 02:31:14;;;;;;;14.68;10.08;;;;;;;8.22;76.38;94930.16;827530;71;31323;-77
2021/10/31 02:46:25;;;;;;;20.75;12.82;;;;;;;8.62;67.93;94923.37;827001;71;32829;-75
2021/10/31 03:16:15;;;;;;;23.52;13.93;;;;;;;8.42;68.40;94921.55;827805;71;29579;-79
2021/10/31 03:31:12;;;;;;;20.45;15.28;;;;;;;8.38;68.73;94920.48;827805;71;30535;-77
2021/10/31 03:46:25;;;;;;;22.20;14.55;;;;;;;8.45;69.64;94923.38;827109;71;32754;-78
2021/10/31 04:01:10;;;;;;;19.70;13.43;;;;;;;8.45;69.62;94915.01;827765;71;29899;-79
2021/10/31 04:16:17;;;;;;;18.95;13.45;;;;;;;8.47;69.63;94905.59;833962;71;32728;-78
2021/10/31 04:31:10;;;;;;;18.98;13.50;;;;;;;8.46;69.55;94906.66;833555;71;30208;-77
2021/10/31 05:01:21;;;;;;;20.40;14.05;;;;;;;8.51;70.25;94883.88;819655;71;33415;-79
2021/10/31 05:16:35;;;;;;;24.85;17.10;;;;;;;8.50;70.88;94880.24;833354;71;32886;-77
2021/10/31 05:31:19;;;;;;;23.32;15.38;;;;;;;8.47;71.03;94888.60;817377;70;33573;-78
2021/10/31 05:46:16;;;;;;;25.70;16.30;;;;;;;8.55;70.80;94892.77;827435;71;32606;-78
2021/10/31 06:01:10;;;;;;;24.85;16.80;;;;;;;8.63;70.65;94904.52;824315;71;29800;-77
2021/10/31 06:16:17;;;;;;;28.47;19.02;;;;;;;8.76;70.41;94905.83;833159;71;32743;-75
2021/10/31 06:31:12;;;;;;;32.33;19.10;;;;;;;8.98;69.96;94913.33;827729;71;31783;-77
2021/10/31 06:46:16;;;;;;;34.55;22.87;;;;;;;9.50;68.83;94912.61;823551;71;32995;-79
2021/10/31 07:01:08;;;;;;;29.02;20.52;;;;;;;9.98;67.21;94919.41;825758;71;29731;-77
2021/10/31 07:16:27;;;;;;;27.37;19.00;;;;;;;11.45;64.43;94907.77;833489;71;32985;-76
2021/10/31 07:31:18;;;;;;;28.80;17.75;;;;;;;12.83;57.99;94898.31;826746;71;32762;-77
2021/10/31 07:46:21;;;;;;;26.95;20.27;;;;;;;13.86;55.86;94885.20;826651;71;31965;-76
2021/10/31 08:01:10;;;;;;;31.95;21.93;;;;;;;15.70;53.13;94882.33;821455;71;30605;-76
2021/10/31 08:16:15;;;;;;;30.85;22.22;;;;;;;15.96;50.96;94874.98;826815;71;32677;-78
2021/10/31 08:31:13;;;;;;;28.10;23.57;;;;;;;17.12;48.54;94864.04;827724;71;32244;-75
2021/10/31 08:46:19;;;;;;;27.85;20.32;;;;;;;15.72;49.99;94853.72;833365;71;32725;-76
2021/10/31 09:16:13;;;;;;;29.10;18.65;;;;;;;12.12;61.42;94830.59;828484;71;30374;-79
2021/10/31 09:31:09;;;;;;;23.52;17.20;;;;;;;12.14;60.74;94806.87;833244;71;30483;-77
2021/10/31 09:46:15;;;;;;;21.27;16.85;;;;;;;11.91;59.50;94791.48;827235;71;33141;-75
2021/10/31 10:01:35;;;;;;;18.45;15.20;;;;;;;11.96;57.14;94776.95;833329;71;32803;-77
2021/10/31 10:16:31;;;;;;;14.10;11.55;;;;;;;11.65;56.96;94762.70;827494;71;30341;-77
2021/10/31 15:16:15;;;;;;;21.40;15.38;;;;;;;10.78;59.38;94571.78;827897;71;31742;-78
2021/10/31 15:31:09;;;;;;;24.92;16.60;;;;;;;10.43;60.23;94565.47;833457;71;29266;-78
2021/10/31 15:46:16;;;;;;;25.20;18.02;;;;;;;10.07;61.75;94572.23;826863;71;32081;-77
2021/10/31 16:01:16;;;;;;;22.52;16.20;;;;;;;9.59;63.91;94577.78;826995;71;32186;-77
2021/10/31 16:16:18;;;;;;;25.17;19.40;;;;;;;9.42;64.50;94578.73;820462;71;32482;-78
2021/10/31 16:31:20;;;;;;;31.55;18.50;;;;;;;9.41;64.52;94583.73;820417;71;32359;-75
2021/10/31 16:46:14;;;;;;;27.62;18.77;;;;;;;9.37;64.78;94583.50;826969;71;32278;-78
2021/10/31 17:01:14;;;;;;;26.12;18.95;;;;;;;9.27;65.39;94585.45;826869;71;31806;-77
2021/10/31 17:16:09;;;;;;;28.10;18.62;;;;;;;9.41;64.34;94581.89;833721;71;29307;-77
2021/10/31 17:31:10;;;;;;;26.70;18.67;;;;;;;9.47;64.44;94583.93;828394;71;29305;-79
2021/10/31 17:46:09;;;;;;;25.55;18.60;;;;;;;9.41;64.76;94583.73;820746;71;28819;-80
2021/10/31 18:01:12;;;;;;;56.58;35.85;;;;;;;9.32;65.66;94574.37;828573;71;29799;-77
2021/10/31 18:16:17;;;;;;;64.85;40.65;;;;;;;9.21;65.96;94576.86;819783;71;32468;-76
2021/10/31 18:31:29;;;;;;;51.98;36.70;;;;;;;9.09;66.22;94570.67;833407;71;31866;-79
2021/10/31 18:46:17;;;;;;;49.65;35.35;;;;;;;8.95;66.16;94567.14;827204;71;32345;-80
2021/10/31 19:01:32;;;;;;;54.45;35.50;;;;;;;8.80;66.84;94565.44;829571;71;31847;-79
2021/10/31 19:16:16;;;;;;;48.48;33.92;;;;;;;8.89;67.04;94569.55;829459;71;32687;-80
2021/10/31 19:31:15;;;;;;;51.15;31.93;;;;;;;8.79;66.64;94576.95;827825;71;30308;-79
2021/10/31 19:46:50;;;;;;;51.50;33.88;;;;;;;8.64;66.77;94579.16;816456;71;32880;-81
2021/10/31 20:01:16;;;;;;;44.75;29.40;;;;;;;8.41;67.01;94585.33;820441;71;32838;-77
2021/10/31 20:16:21;;;;;;;42.30;27.80;;;;;;;8.29;67.42;94577.51;833889;71;32822;-77
2021/10/31 20:31:09;;;;;;;40.45;25.65;;;;;;;8.15;67.60;94585.16;827769;71;30222;-78
2021/10/31 20:46:09;;;;;;;41.68;27.07;;;;;;;8.01;68.14;94583.16;830796;71;31001;-77
2021/10/31 21:16:15;;;;;;;44.15;25.85;;;;;;;7.78;69.65;94569.41;833476;71;30065;-79
2021/10/31 21:31:16;;;;;;;44.40;25.25;;;;;;;7.61;69.28;94558.76;826894;71;32740;-78
2021/10/31 21:46:09;;;;;;;41.68;28.17;;;;;;;7.54;69.57;94562.19;833851;71;29471;-78
2021/10/31 22:01:14;;;;;;;41.30;27.30;;;;;;;7.48;69.52;94553.31;827062;71;32740;-77
2021/10/31 22:16:14;;;;;;;50.60;29.20;;;;;;;7.36;69.62;94554.91;829116;71;32649;-79
2021/10/31 22:31:14;;;;;;;36.88;24.25;;;;;;;7.30;69.55;94540.31;801863;74;32844;-78
2021/10/31 22:46:09;;;;;;;35.13;20.80;;;;;;;7.23;70.52;94536.69;829865;71;29361;-81
2021/10/31 23:01:14;;;;;;;32.80;21.25;;;;;;;7.22;70.28;94524.17;833608;71;29701;-77
2021/10/31 23:16:18;;;;;;;28.85;18.00;;;;;;;7.17;70.93;94515.03;833344;71;33295;-77
2021/10/31 23:31:12;;;;;;;28.83;19.52;;;;;;;7.13;70.84;94501.48;828281;71;32484;-80
2021/10/31 23:46:15;;;;;;;28.05;19.65;;;;;;;7.09;70.63;94492.63;833216;71;32694;-79
